Gokbel — TCZY4 — position and weather

sailwx.info

Track history (hours):
 
Tides and Currents Weather Stations Pressure Air Temp Water Temp Dewpoint Dewpoint Depression Visibility Wind Speed Wind Dir Waves Ship Positions

Gokbel

Last reported at 2014-Dec-16 17:25 UTC. Time now 2014-Dec-20 08:43 UTC.
Position N 36°17' E 024°10'.

Length 87 m; draft 5.8 m.

MMSI: 271042598.

Date/timePositionNaut miles runAvg speedWind from/ knotsBaromVisibWave heightAir tempDewpointWater temp
2014-Dec-16 17:25N 36°17' E 024°10'7 8.6
2014-Dec-16 16:33N 36°16' E 024°19'9 9.0
2014-Dec-16 15:33N 36°14' E 024°30'9 9.1
2014-Dec-16 14:33N 36°13' E 024°41'9 9.2
2014-Dec-16 13:33N 36°11' E 024°52'9 9.1
2014-Dec-16 12:33N 36°10' E 025°04'9 8.9
2014-Dec-16 11:34N 36°09' E 025°15'9 9.1
2014-Dec-16 10:33N 36°10' E 025°26'9 9.1
2014-Dec-16 09:33N 36°10' E 025°37'9 9.1
2014-Dec-16 08:33N 36°10' E 025°48'9 9.0
2014-Dec-16 07:33N 36°10' E 025°59'9 8.8
2014-Dec-16 06:33N 36°09' E 026°10'9 8.8
2014-Dec-16 05:33N 36°08' E 026°21'9 8.9
2014-Dec-16 04:30N 36°08' E 026°33'10 8.9
2014-Dec-16 03:26N 36°07' E 026°45'  
Track history (hours):
 
Tides and Currents Weather Stations Pressure Air Temp Water Temp Dewpoint Dewpoint Depression Visibility Wind Speed Wind Dir Waves Ship Positions

Gokbel

Last reported at 2014-Dec-16 17:25 UTC. Time now 2014-Dec-20 08:43 UTC.
Position N 36°17' E 024°10'.

Length 87 m; draft 5.8 m.

MMSI: 271042598.

Date/timePositionNaut miles runAvg speedWind from/ knotsBaromVisibWave heightAir tempDewpointWater temp
2014-Dec-16 17:25N 36°17' E 024°10'7 8.6
2014-Dec-16 16:33N 36°16' E 024°19'9 9.0
2014-Dec-16 15:33N 36°14' E 024°30'9 9.1
2014-Dec-16 14:33N 36°13' E 024°41'9 9.2
2014-Dec-16 13:33N 36°11' E 024°52'9 9.1
2014-Dec-16 12:33N 36°10' E 025°04'9 8.9
2014-Dec-16 11:34N 36°09' E 025°15'9 9.1
2014-Dec-16 10:33N 36°10' E 025°26'9 9.1
2014-Dec-16 09:33N 36°10' E 025°37'9 9.1
2014-Dec-16 08:33N 36°10' E 025°48'9 9.0
2014-Dec-16 07:33N 36°10' E 025°59'9 8.8
2014-Dec-16 06:33N 36°09' E 026°10'9 8.8
2014-Dec-16 05:33N 36°08' E 026°21'9 8.9
2014-Dec-16 04:30N 36°08' E 026°33'10 8.9
2014-Dec-16 03:26N 36°07' E 026°45'  

Dump ship's entire track history